Time;durP1;ratioP1;P1;durP2;ratioP2;P2;SDS_P1;SDS_P2;PMS_P1;PMS_P2;Temp;Humidity;BMP_temperature;BMP_pressure;BME280_temperature;BME280_humidity;BME280_pressure;Samples;Min_cycle;Max_cycle;Signal;HPM_P1;HPM_P2
2023/06/03 00:00:55;;;;;;;;;;;9.60;81.30;;;;;;5069159;28;19908;-43
2023/06/03 00:03:21;;;;;;;;;;;9.50;85.60;;;;;;5068817;28;20162;-43
2023/06/03 00:05:46;;;;;;;;;;;9.50;85.00;;;;;;5069140;28;19911;-43
2023/06/03 00:08:12;;;;;;;;;;;9.40;84.70;;;;;;5050134;28;19948;-44
2023/06/03 00:10:38;;;;;;;;;;;9.30;85.60;;;;;;5062252;28;19905;-44
2023/06/03 00:13:03;;;;;;;;;;;9.20;85.70;;;;;;5068834;28;19911;-44
2023/06/03 00:15:28;;;;;;;;;;;9.10;87.20;;;;;;5069071;28;19904;-43
2023/06/03 00:17:55;;;;;;;;;;;9.10;86.50;;;;;;5052079;28;19912;-43
2023/06/03 00:20:21;;;;;;;;;;;9.00;87.50;;;;;;5058553;28;20448;-42
2023/06/03 00:22:47;;;;;;;;;;;9.10;86.80;;;;;;5068651;28;19904;-42
2023/06/03 00:25:12;;;;;;;;;;;9.00;86.80;;;;;;5084009;28;20422;-43
2023/06/03 00:27:39;;;;;;;;;;;9.00;87.80;;;;;;5068422;28;19993;-43
2023/06/03 00:30:05;;;;;;;;;;;8.90;88.90;;;;;;5068307;28;20143;-44
2023/06/03 00:32:31;;;;;;;;;;;8.90;89.70;;;;;;5068967;28;19911;-44
2023/06/03 00:34:56;;;;;;;;;;;8.90;90.10;;;;;;5052731;28;20348;-43
2023/06/03 00:37:22;;;;;;;;;;;8.80;90.20;;;;;;5060117;28;19935;-43
2023/06/03 00:39:47;;;;;;;;;;;8.70;90.10;;;;;;5068207;28;20033;-42
2023/06/03 00:42:13;;;;;;;;;;;8.70;90.80;;;;;;5068406;28;19905;-44
2023/06/03 00:44:38;;;;;;;;;;;8.70;90.50;;;;;;5053878;28;20000;-44
2023/06/03 00:47:04;;;;;;;;;;;8.60;90.60;;;;;;5063494;28;19942;-44
2023/06/03 00:49:30;;;;;;;;;;;8.60;91.10;;;;;;5067824;28;19908;-43
2023/06/03 00:51:56;;;;;;;;;;;8.60;91.50;;;;;;5076345;28;20329;-44
2023/06/03 00:54:22;;;;;;;;;;;8.50;91.60;;;;;;5072336;28;19908;-43
2023/06/03 00:56:47;;;;;;;;;;;8.40;92.00;;;;;;5072259;28;20002;-44
2023/06/03 00:59:15;;;;;;;;;;;8.30;92.50;;;;;;5072238;28;19904;-43
2023/06/03 01:01:42;;;;;;;;;;;8.30;93.00;;;;;;5072793;28;20339;-43
2023/06/03 01:04:09;;;;;;;;;;;8.20;93.30;;;;;;5072449;28;19950;-43
2023/06/03 01:06:47;;;;;;;;;;;8.20;93.40;;;;;;5054195;28;20361;-42
2023/06/03 01:09:23;;;;;;;;;;;8.10;93.30;;;;;;5071880;28;19908;-45
2023/06/03 01:12:07;;;;;;;;;;;8.10;93.80;;;;;;5072377;28;19905;-43
2023/06/03 01:14:36;;;;;;;;;;;8.00;95.00;;;;;;5065298;28;19911;-44
2023/06/03 01:17:09;;;;;;;;;;;8.00;95.30;;;;;;5063769;28;19920;-43
2023/06/03 01:19:40;;;;;;;;;;;7.90;95.50;;;;;;5061972;28;19970;-43
2023/06/03 01:22:11;;;;;;;;;;;7.90;95.90;;;;;;5074533;28;19960;-43
2023/06/03 01:24:37;;;;;;;;;;;7.80;96.20;;;;;;5071881;28;19946;-43
2023/06/03 01:27:03;;;;;;;;;;;7.70;96.80;;;;;;5071571;28;20331;-46
2023/06/03 01:29:28;;;;;;;;;;;7.70;97.30;;;;;;5071856;28;19947;-44
2023/06/03 01:31:55;;;;;;;;;;;7.60;98.50;;;;;;5072131;28;19991;-44
2023/06/03 01:34:21;;;;;;;;;;;7.60;98.60;;;;;;5071743;28;19904;-43
2023/06/03 01:36:47;;;;;;;;;;;7.60;99.70;;;;;;5071988;28;19950;-43
2023/06/03 01:39:12;;;;;;;;;;;7.60;99.90;;;;;;5052915;28;19904;-43
2023/06/03 01:41:42;;;;;;;;;;;7.60;99.80;;;;;;5067135;28;20006;-43
2023/06/03 01:44:07;;;;;;;;;;;7.60;99.80;;;;;;5081779;28;19908;-43
2023/06/03 01:46:33;;;;;;;;;;;7.60;99.90;;;;;;5066655;28;20337;-43
2023/06/03 01:48:59;;;;;;;;;;;7.50;99.90;;;;;;5053129;28;19904;-43
2023/06/03 01:51:26;;;;;;;;;;;7.50;99.90;;;;;;5079812;28;20369;-44
2023/06/03 01:53:51;;;;;;;;;;;7.50;99.90;;;;;;5070932;28;19915;-43
2023/06/03 01:56:17;;;;;;;;;;;7.40;99.90;;;;;;5070772;28;19917;-42
2023/06/03 01:58:42;;;;;;;;;;;7.40;99.90;;;;;;5070998;28;19905;-43
2023/06/03 02:01:08;;;;;;;;;;;7.40;99.90;;;;;;5070858;28;19905;-43
2023/06/03 02:03:33;;;;;;;;;;;7.30;99.90;;;;;;5071247;28;19908;-43
2023/06/03 02:05:58;;;;;;;;;;;7.30;99.90;;;;;;5071271;28;19904;-43
2023/06/03 02:08:24;;;;;;;;;;;7.30;99.90;;;;;;5062566;28;20145;-45
2023/06/03 02:10:49;;;;;;;;;;;7.30;99.90;;;;;;5084931;28;19904;-46
2023/06/03 02:13:15;;;;;;;;;;;7.20;99.90;;;;;;5069086;28;19908;-44
2023/06/03 02:15:41;;;;;;;;;;;7.20;99.90;;;;;;5049279;28;20147;-45
2023/06/03 02:18:06;;;;;;;;;;;7.20;99.90;;;;;;5053188;28;20313;-44
2023/06/03 02:20:32;;;;;;;;;;;7.20;99.90;;;;;;5076133;28;19904;-47
2023/06/03 02:23:01;;;;;;;;;;;7.20;99.90;;;;;;5090918;28;19911;-44
2023/06/03 02:25:26;;;;;;;;;;;7.20;99.90;;;;;;5090830;28;19908;-42
2023/06/03 02:27:54;;;;;;;;;;;7.10;99.90;;;;;;5090575;28;19903;-43
2023/06/03 02:30:20;;;;;;;;;;;7.20;99.90;;;;;;5058283;28;19919;-42
2023/06/03 02:32:45;;;;;;;;;;;7.20;99.90;;;;;;5063022;28;19908;-43
2023/06/03 02:35:11;;;;;;;;;;;7.10;99.90;;;;;;5090462;28;20417;-44
2023/06/03 02:37:36;;;;;;;;;;;7.10;99.90;;;;;;5072339;28;19950;-43
2023/06/03 02:40:02;;;;;;;;;;;7.20;99.90;;;;;;5089952;28;20023;-43
2023/06/03 02:42:27;;;;;;;;;;;7.20;99.90;;;;;;5089511;28;19904;-42
2023/06/03 02:44:53;;;;;;;;;;;7.10;99.90;;;;;;5090363;28;19919;-43
2023/06/03 02:47:19;;;;;;;;;;;7.00;99.90;;;;;;5089990;28;19911;-43
2023/06/03 02:49:45;;;;;;;;;;;6.90;99.90;;;;;;5089779;28;19911;-43
2023/06/03 02:52:10;;;;;;;;;;;6.90;99.90;;;;;;5089905;28;20358;-43
2023/06/03 02:54:36;;;;;;;;;;;6.80;99.90;;;;;;5090274;28;19987;-44
2023/06/03 02:57:01;;;;;;;;;;;6.90;99.90;;;;;;5071406;28;19990;-43
2023/06/03 02:59:27;;;;;;;;;;;6.90;99.90;;;;;;5074897;28;19974;-43
2023/06/03 03:01:52;;;;;;;;;;;6.90;99.90;;;;;;5050851;28;19904;-44
2023/06/03 03:04:18;;;;;;;;;;;6.90;99.90;;;;;;5088389;28;19919;-43
2023/06/03 03:06:44;;;;;;;;;;;6.90;99.90;;;;;;5077443;28;19905;-43
2023/06/03 03:09:09;;;;;;;;;;;6.90;99.90;;;;;;5067401;28;19950;-43
2023/06/03 03:11:35;;;;;;;;;;;6.80;99.90;;;;;;5064763;28;20400;-43
2023/06/03 03:14:02;;;;;;;;;;;6.70;99.90;;;;;;5082827;28;19908;-42
2023/06/03 03:16:28;;;;;;;;;;;6.60;99.90;;;;;;5089707;28;19904;-42
2023/06/03 03:18:53;;;;;;;;;;;6.60;99.90;;;;;;5089254;28;19912;-42
2023/06/03 03:21:19;;;;;;;;;;;6.50;99.90;;;;;;5089534;28;19903;-42
2023/06/03 03:23:45;;;;;;;;;;;6.40;99.90;;;;;;5090040;28;19908;-42
2023/06/03 03:26:13;;;;;;;;;;;6.50;99.90;;;;;;5071410;28;19978;-44
2023/06/03 03:28:39;;;;;;;;;;;6.50;99.90;;;;;;5084732;28;19904;-43
2023/06/03 03:31:04;;;;;;;;;;;6.60;99.90;;;;;;5052567;28;19912;-42
2023/06/03 03:33:31;;;;;;;;;;;6.60;99.90;;;;;;5065175;28;19904;-43
2023/06/03 03:35:58;;;;;;;;;;;6.70;99.90;;;;;;5065048;28;19909;-42
2023/06/03 03:38:23;;;;;;;;;;;6.70;99.90;;;;;;5064866;28;19950;-43
2023/06/03 03:40:49;;;;;;;;;;;6.70;99.90;;;;;;5063834;28;19940;-43
2023/06/03 03:43:15;;;;;;;;;;;6.80;99.90;;;;;;5067307;28;19939;-43
2023/06/03 03:45:41;;;;;;;;;;;6.80;99.90;;;;;;5079124;28;19912;-41
2023/06/03 03:48:08;;;;;;;;;;;6.70;99.90;;;;;;5069162;28;20329;-42
2023/06/03 03:50:46;;;;;;;;;;;6.70;99.90;;;;;;5068729;28;19904;-43
2023/06/03 03:53:13;;;;;;;;;;;6.70;99.90;;;;;;5055047;28;19912;-42
2023/06/03 03:55:45;;;;;;;;;;;6.80;99.90;;;;;;5061669;28;20024;-44
2023/06/03 03:58:19;;;;;;;;;;;6.70;99.90;;;;;;5061095;28;19958;-43
2023/06/03 04:00:45;;;;;;;;;;;6.80;99.90;;;;;;5050620;28;20477;-44
2023/06/03 04:03:14;;;;;;;;;;;6.80;99.90;;;;;;5066853;28;20002;-44
2023/06/03 04:05:39;;;;;;;;;;;6.80;99.90;;;;;;5063672;28;20284;-42
2023/06/03 04:08:05;;;;;;;;;;;6.90;99.90;;;;;;5061475;28;19923;-43
2023/06/03 04:10:32;;;;;;;;;;;6.90;99.90;;;;;;5064699;28;19903;-43
2023/06/03 04:12:57;;;;;;;;;;;6.90;99.90;;;;;;5063857;28;19905;-43
2023/06/03 04:15:24;;;;;;;;;;;6.90;99.90;;;;;;5060863;28;19924;-42
2023/06/03 04:17:50;;;;;;;;;;;6.90;99.90;;;;;;5065345;28;19995;-44
2023/06/03 04:20:35;;;;;;;;;;;7.00;99.90;;;;;;5065110;28;19999;-41
2023/06/03 04:23:03;;;;;;;;;;;7.00;99.90;;;;;;5062350;28;19912;-42
2023/06/03 04:25:29;;;;;;;;;;;7.10;99.90;;;;;;5062326;28;19908;-43
2023/06/03 04:27:55;;;;;;;;;;;7.10;99.90;;;;;;5063718;28;19911;-42
2023/06/03 04:30:21;;;;;;;;;;;7.20;99.90;;;;;;5064143;28;19904;-44
2023/06/03 04:32:48;;;;;;;;;;;7.20;99.90;;;;;;5066498;28;19908;-43
2023/06/03 04:35:13;;;;;;;;;;;7.20;99.90;;;;;;5069969;28;19940;-43
2023/06/03 04:37:39;;;;;;;;;;;7.30;99.90;;;;;;5075889;28;19940;-43
2023/06/03 04:40:05;;;;;;;;;;;7.30;99.90;;;;;;5063484;28;19927;-46
2023/06/03 04:42:30;;;;;;;;;;;7.30;99.90;;;;;;5067748;28;19931;-44
2023/06/03 04:44:58;;;;;;;;;;;7.30;99.90;;;;;;5067738;28;19959;-43
2023/06/03 04:47:28;;;;;;;;;;;7.30;99.90;;;;;;5069420;28;20328;-45
2023/06/03 04:49:54;;;;;;;;;;;7.30;99.90;;;;;;5063566;28;19941;-43
2023/06/03 04:52:20;;;;;;;;;;;7.40;99.90;;;;;;5035570;28;20342;-42
2023/06/03 04:54:46;;;;;;;;;;;7.40;99.90;;;;;;5060891;28;19909;-45
2023/06/03 04:57:11;;;;;;;;;;;7.40;99.90;;;;;;5063445;28;19916;-43
2023/06/03 04:59:37;;;;;;;;;;;7.50;99.90;;;;;;5067444;28;20269;-43
2023/06/03 05:02:03;;;;;;;;;;;7.60;99.90;;;;;;5060476;28;19905;-43
2023/06/03 05:04:29;;;;;;;;;;;7.60;99.90;;;;;;5054746;28;20377;-43
2023/06/03 05:06:55;;;;;;;;;;;7.60;99.90;;;;;;5086268;28;19998;-46
2023/06/03 05:09:21;;;;;;;;;;;7.70;99.90;;;;;;5049003;28;19988;-46
2023/06/03 05:11:47;;;;;;;;;;;7.80;99.90;;;;;;5057847;28;20011;-43
2023/06/03 05:14:12;;;;;;;;;;;7.80;99.90;;;;;;5063765;28;19920;-44
2023/06/03 05:16:38;;;;;;;;;;;7.90;99.90;;;;;;5064137;28;20447;-43
2023/06/03 05:19:04;;;;;;;;;;;8.00;99.90;;;;;;5067269;28;19912;-44
2023/06/03 05:21:29;;;;;;;;;;;8.10;99.90;;;;;;5075891;28;20301;-43
2023/06/03 05:23:55;;;;;;;;;;;8.10;99.90;;;;;;5070612;28;19915;-43
2023/06/03 05:26:20;;;;;;;;;;;8.20;99.90;;;;;;5039012;28;19921;-43
2023/06/03 05:28:48;;;;;;;;;;;8.30;99.90;;;;;;5056074;28;19956;-42
2023/06/03 05:31:15;;;;;;;;;;;8.40;99.90;;;;;;5050857;28;19912;-46
2023/06/03 05:33:41;;;;;;;;;;;8.40;99.90;;;;;;5068978;28;19908;-44
2023/06/03 05:36:07;;;;;;;;;;;8.50;99.90;;;;;;5070260;28;19920;-43
2023/06/03 05:38:33;;;;;;;;;;;8.60;99.90;;;;;;5065980;28;20330;-44
2023/06/03 05:40:59;;;;;;;;;;;8.60;99.90;;;;;;5051622;28;19916;-42
2023/06/03 05:43:24;;;;;;;;;;;8.70;99.90;;;;;;5076832;28;19935;-43
2023/06/03 05:45:50;;;;;;;;;;;8.80;99.90;;;;;;5078420;28;20552;-43
2023/06/03 05:48:16;;;;;;;;;;;8.90;99.90;;;;;;5067490;28;19967;-42
2023/06/03 05:50:48;;;;;;;;;;;8.90;99.90;;;;;;5081732;28;19908;-44
2023/06/03 05:53:14;;;;;;;;;;;9.00;99.90;;;;;;5074731;28;19951;-42
2023/06/03 05:55:39;;;;;;;;;;;9.10;99.90;;;;;;5070712;28;19950;-43
2023/06/03 05:58:05;;;;;;;;;;;9.20;99.90;;;;;;5070301;28;19904;-43
2023/06/03 06:00:30;;;;;;;;;;;9.30;99.90;;;;;;5070495;28;19904;-43
2023/06/03 06:02:55;;;;;;;;;;;9.40;99.70;;;;;;5069687;28;19909;-42
2023/06/03 06:05:21;;;;;;;;;;;9.50;99.40;;;;;;5069338;28;19904;-42
2023/06/03 06:07:46;;;;;;;;;;;9.50;99.50;;;;;;5058797;28;19911;-42
2023/06/03 06:10:12;;;;;;;;;;;9.60;99.90;;;;;;5051016;28;19915;-43
2023/06/03 06:12:37;;;;;;;;;;;9.60;99.80;;;;;;5078671;28;20260;-43
2023/06/03 06:15:03;;;;;;;;;;;9.80;99.10;;;;;;5070579;28;19904;-43
2023/06/03 06:17:28;;;;;;;;;;;9.90;98.30;;;;;;5068672;28;19904;-43
2023/06/03 06:19:54;;;;;;;;;;;9.90;98.80;;;;;;5070150;28;19905;-43
2023/06/03 06:22:19;;;;;;;;;;;10.00;99.10;;;;;;5080262;28;19908;-44
2023/06/03 06:24:45;;;;;;;;;;;10.10;98.60;;;;;;5083830;28;19908;-44
2023/06/03 06:27:10;;;;;;;;;;;10.20;99.20;;;;;;5074110;28;19954;-44
2023/06/03 06:29:35;;;;;;;;;;;10.30;98.90;;;;;;5055959;28;19966;-43
2023/06/03 06:32:01;;;;;;;;;;;10.40;98.50;;;;;;5068183;28;19908;-42
2023/06/03 06:34:31;;;;;;;;;;;10.40;98.90;;;;;;5064716;28;19909;-42
2023/06/03 06:36:57;;;;;;;;;;;10.50;98.20;;;;;;5085748;28;19904;-42
2023/06/03 06:39:41;;;;;;;;;;;10.60;98.20;;;;;;5047798;28;19908;-43
2023/06/03 06:42:12;;;;;;;;;;;10.60;98.40;;;;;;5080047;28;19961;-42
2023/06/03 06:44:49;;;;;;;;;;;10.70;97.50;;;;;;5057171;28;19920;-42
2023/06/03 06:47:22;;;;;;;;;;;10.80;98.10;;;;;;5051916;28;19908;-50
2023/06/03 06:49:49;;;;;;;;;;;10.90;98.30;;;;;;5068332;28;20383;-49
2023/06/03 06:52:14;;;;;;;;;;;11.00;98.60;;;;;;5067580;28;19913;-51
2023/06/03 06:54:40;;;;;;;;;;;11.10;97.30;;;;;;5067884;28;19950;-52
2023/06/03 06:57:06;;;;;;;;;;;11.20;97.30;;;;;;5052417;28;19963;-48
2023/06/03 06:59:31;;;;;;;;;;;11.30;97.40;;;;;;5070096;28;19919;-48
2023/06/03 07:01:57;;;;;;;;;;;11.40;98.10;;;;;;5069157;28;19915;-48
2023/06/03 07:04:23;;;;;;;;;;;11.40;97.20;;;;;;5069505;28;19913;-50
2023/06/03 07:06:49;;;;;;;;;;;11.50;96.80;;;;;;5070137;28;19940;-51
2023/06/03 07:09:14;;;;;;;;;;;11.70;96.70;;;;;;5063431;28;19919;-51
2023/06/03 07:11:46;;;;;;;;;;;11.80;96.60;;;;;;5070089;28;20285;-49
2023/06/03 07:14:13;;;;;;;;;;;11.90;97.10;;;;;;5069926;28;19910;-49
2023/06/03 07:16:40;;;;;;;;;;;11.90;96.40;;;;;;5069234;28;19904;-52
2023/06/03 07:19:06;;;;;;;;;;;12.00;94.70;;;;;;5069836;28;20370;-48
2023/06/03 07:21:35;;;;;;;;;;;12.20;95.10;;;;;;5070009;28;19912;-50
2023/06/03 07:24:01;;;;;;;;;;;12.40;94.50;;;;;;5068952;28;19935;-48
2023/06/03 07:26:33;;;;;;;;;;;12.50;93.20;;;;;;5064130;28;20377;-50
2023/06/03 07:28:58;;;;;;;;;;;12.60;93.80;;;;;;5053494;28;19909;-51
2023/06/03 07:31:24;;;;;;;;;;;12.70;93.50;;;;;;5055759;28;19908;-48
2023/06/03 07:33:51;;;;;;;;;;;12.90;93.80;;;;;;5069665;28;20350;-47
2023/06/03 07:36:18;;;;;;;;;;;13.10;93.80;;;;;;5061476;28;19908;-47
2023/06/03 07:38:55;;;;;;;;;;;13.20;91.80;;;;;;5065056;28;19911;-48
2023/06/03 07:41:31;;;;;;;;;;;13.40;91.60;;;;;;5066429;28;19904;-50
2023/06/03 07:43:58;;;;;;;;;;;13.60;90.50;;;;;;5063347;28;19948;-50
2023/06/03 07:46:29;;;;;;;;;;;13.80;90.20;;;;;;5068083;28;19909;-51
2023/06/03 07:48:55;;;;;;;;;;;13.90;89.70;;;;;;5067141;28;19912;-47
2023/06/03 07:51:20;;;;;;;;;;;14.10;87.80;;;;;;5070249;28;19913;-50
2023/06/03 07:53:46;;;;;;;;;;;14.40;87.70;;;;;;5068168;28;19908;-48
2023/06/03 07:56:13;;;;;;;;;;;14.60;86.90;;;;;;5059732;28;19912;-48
2023/06/03 07:58:38;;;;;;;;;;;14.90;87.00;;;;;;5060444;28;19995;-48
2023/06/03 08:01:04;;;;;;;;;;;15.10;83.90;;;;;;5067344;28;20470;-48
2023/06/03 08:03:30;;;;;;;;;;;15.40;81.90;;;;;;5059032;28;19915;-49
2023/06/03 08:05:56;;;;;;;;;;;15.80;77.90;;;;;;5067957;28;20399;-50
2023/06/03 08:08:25;;;;;;;;;;;16.20;77.70;;;;;;5067961;28;19911;-48
2023/06/03 08:10:50;;;;;;;;;;;16.60;73.90;;;;;;5068993;28;19912;-48
2023/06/03 08:13:17;;;;;;;;;;;17.20;74.10;;;;;;5069251;28;20037;-49
2023/06/03 08:15:43;;;;;;;;;;;18.10;75.50;;;;;;5069234;28;19904;-46
2023/06/03 08:18:09;;;;;;;;;;;19.30;71.20;;;;;;5068217;28;19911;-46
2023/06/03 08:20:38;;;;;;;;;;;20.70;67.10;;;;;;5063397;28;19905;-50
2023/06/03 08:23:04;;;;;;;;;;;22.10;62.50;;;;;;5074780;28;20286;-50
2023/06/03 08:25:30;;;;;;;;;;;23.10;57.20;;;;;;5063737;28;19911;-46
2023/06/03 08:27:56;;;;;;;;;;;24.00;54.80;;;;;;5068429;28;20373;-47
2023/06/03 08:30:21;;;;;;;;;;;25.10;53.00;;;;;;5060175;28;19912;-47
2023/06/03 08:32:47;;;;;;;;;;;25.80;50.60;;;;;;5068880;28;19904;-49
2023/06/03 08:35:14;;;;;;;;;;;26.40;48.70;;;;;;5069561;28;19957;-50
2023/06/03 08:37:40;;;;;;;;;;;26.50;48.30;;;;;;5071863;28;20403;-49
2023/06/03 08:40:07;;;;;;;;;;;27.70;44.60;;;;;;5061122;28;19909;-48
2023/06/03 08:42:38;;;;;;;;;;;28.10;44.40;;;;;;5050831;28;19991;-50
2023/06/03 08:45:05;;;;;;;;;;;28.60;43.30;;;;;;5069207;28;20272;-48
2023/06/03 08:47:36;;;;;;;;;;;28.80;42.80;;;;;;5070556;28;19957;-49
2023/06/03 08:50:05;;;;;;;;;;;28.90;43.50;;;;;;5074428;28;19936;-50
2023/06/03 08:52:33;;;;;;;;;;;29.80;40.60;;;;;;5063897;28;19926;-50
2023/06/03 08:55:00;;;;;;;;;;;29.50;39.70;;;;;;5069050;28;20380;-50
2023/06/03 08:57:27;;;;;;;;;;;29.40;40.90;;;;;;5068295;28;19913;-50
2023/06/03 08:59:53;;;;;;;;;;;29.20;40.00;;;;;;5062495;28;19904;-47
2023/06/03 09:02:19;;;;;;;;;;;30.40;38.10;;;;;;5060821;28;20305;-50
2023/06/03 09:04:47;;;;;;;;;;;31.50;37.90;;;;;;5070603;28;19908;-49
2023/06/03 09:07:12;;;;;;;;;;;31.30;37.90;;;;;;5073153;28;19912;-50
2023/06/03 09:09:38;;;;;;;;;;;31.80;36.40;;;;;;5061661;28;19908;-50
2023/06/03 09:12:05;;;;;;;;;;;32.10;36.10;;;;;;5067605;28;19908;-50
2023/06/03 09:14:31;;;;;;;;;;;31.70;36.90;;;;;;5073072;28;19904;-50
2023/06/03 09:16:56;;;;;;;;;;;31.70;37.10;;;;;;5072713;28;19957;-47
2023/06/03 09:19:25;;;;;;;;;;;32.00;35.60;;;;;;5063560;28;19944;-50
2023/06/03 09:21:50;;;;;;;;;;;32.70;34.50;;;;;;5072296;28;20025;-49
2023/06/03 09:24:16;;;;;;;;;;;32.70;35.30;;;;;;5072390;28;19908;-50
2023/06/03 09:26:41;;;;;;;;;;;32.80;35.30;;;;;;5071749;28;19904;-50
2023/06/03 09:29:07;;;;;;;;;;;33.00;34.40;;;;;;5057047;28;19905;-50
2023/06/03 09:31:32;;;;;;;;;;;33.10;35.30;;;;;;5070670;28;20258;-50
2023/06/03 09:33:57;;;;;;;;;;;33.20;34.10;;;;;;5054257;28;19905;-49
2023/06/03 09:36:25;;;;;;;;;;;32.70;34.80;;;;;;5071806;28;19911;-50
2023/06/03 09:38:55;;;;;;;;;;;32.90;35.30;;;;;;5070693;28;19952;-50
2023/06/03 09:41:27;;;;;;;;;;;33.10;36.30;;;;;;5072024;28;20392;-51
2023/06/03 09:43:53;;;;;;;;;;;34.00;33.50;;;;;;5072160;28;19995;-51
2023/06/03 09:46:18;;;;;;;;;;;33.70;33.90;;;;;;5063946;28;19966;-51
2023/06/03 09:48:44;;;;;;;;;;;34.50;33.40;;;;;;5069242;28;20280;-49
2023/06/03 09:51:09;;;;;;;;;;;32.50;34.00;;;;;;5066073;28;20393;-50
2023/06/03 09:53:35;;;;;;;;;;;33.20;33.00;;;;;;5053752;28;19911;-51
2023/06/03 09:56:20;;;;;;;;;;;34.10;33.30;;;;;;5071994;28;19916;-51
2023/06/03 09:58:45;;;;;;;;;;;33.90;32.90;;;;;;5071676;28;19905;-51
2023/06/03 10:01:11;;;;;;;;;;;33.30;32.80;;;;;;5080338;28;19911;-51
2023/06/03 10:03:37;;;;;;;;;;;34.20;32.20;;;;;;5071722;28;20257;-51
2023/06/03 10:06:17;;;;;;;;;;;34.60;33.30;;;;;;5072084;28;19904;-50
2023/06/03 10:08:43;;;;;;;;;;;34.90;31.20;;;;;;5070870;28;19953;-51
2023/06/03 10:11:09;;;;;;;;;;;34.20;31.80;;;;;;5071622;28;19991;-51
2023/06/03 10:13:34;;;;;;;;;;;34.10;32.80;;;;;;5053421;28;19904;-51
2023/06/03 10:16:02;;;;;;;;;;;33.30;32.40;;;;;;5057341;28;19912;-51
2023/06/03 10:19:44;;;;;;;3.05;1.00;;;33.30;32.50;;;;;;5077252;28;20320;-49
2023/06/03 10:22:16;;;;;;;1.67;1.20;;;34.80;31.50;;;;;;5089006;28;20469;-51
2023/06/03 10:24:43;;;;;;;2.35;0.90;;;34.60;33.60;;;;;;5093206;28;20016;-50
2023/06/03 10:27:10;;;;;;;1.25;1.02;;;34.10;31.30;;;;;;5084193;28;20032;-42
2023/06/03 10:29:36;;;;;;;1.13;1.02;;;34.80;31.20;;;;;;5083415;28;20089;-42
2023/06/03 10:32:02;;;;;;;1.55;1.20;;;34.60;32.00;;;;;;5084371;28;20030;-42
2023/06/03 10:34:29;;;;;;;2.38;0.90;;;34.30;30.70;;;;;;5103052;28;20480;-42
2023/06/03 10:37:01;;;;;;;1.40;1.05;;;35.20;31.30;;;;;;5083704;28;20428;-44
2023/06/03 10:39:28;;;;;;;0.88;0.70;;;35.30;30.90;;;;;;5085878;28;20029;-44
2023/06/03 10:41:57;;;;;;;1.17;0.90;;;36.00;30.10;;;;;;5091638;28;20020;-43
2023/06/03 10:44:23;;;;;;;1.00;0.85;;;35.70;31.20;;;;;;5096635;28;20461;-45
2023/06/03 10:47:21;;;;;;;1.50;0.80;;;35.60;31.70;;;;;;5088487;28;20039;-43
2023/06/03 10:49:50;;;;;;;1.48;0.70;;;35.50;30.50;;;;;;5101516;28;20023;-42
2023/06/03 10:52:53;;;;;;;3.67;0.93;;;35.20;30.90;;;;;;5084529;28;20082;-45
2023/06/03 10:55:44;;;;;;;2.13;0.80;;;35.20;32.50;;;;;;5093361;28;20027;-43
2023/06/03 10:58:19;;;;;;;3.65;1.25;;;35.10;30.50;;;;;;5078431;28;20470;-44
2023/06/03 11:00:56;;;;;;;2.30;1.00;;;33.80;31.40;;;;;;5099736;28;20032;-45
2023/06/03 11:03:22;;;;;;;1.00;0.85;;;33.80;33.30;;;;;;5084782;28;20016;-44
2023/06/03 11:05:49;;;;;;;2.53;0.90;;;34.20;31.80;;;;;;5085075;28;20016;-43
2023/06/03 11:08:53;;;;;;;2.42;0.85;;;34.20;33.00;;;;;;5084619;28;20031;-45
2023/06/03 11:11:39;;;;;;;1.52;0.90;;;34.20;32.30;;;;;;5082460;28;20505;-43
2023/06/03 11:14:05;;;;;;;0.70;0.70;;;33.80;31.90;;;;;;5083959;28;20028;-43
2023/06/03 11:16:43;;;;;;;2.38;1.00;;;33.90;30.90;;;;;;5083670;28;20031;-44
2023/06/03 11:19:35;;;;;;;0.93;0.90;;;32.80;32.30;;;;;;5079320;28;20379;-44
2023/06/03 11:22:04;;;;;;;1.45;0.70;;;34.00;32.80;;;;;;5085148;28;20119;-43
2023/06/03 11:24:38;;;;;;;4.95;1.20;;;34.10;30.90;;;;;;5087360;28;20493;-43
2023/06/03 11:27:13;;;;;;;0.70;0.70;;;33.90;32.10;;;;;;5084369;28;20029;-46
2023/06/03 11:29:48;;;;;;;2.25;1.08;;;34.40;31.50;;;;;;5085607;28;20024;-43
2023/06/03 11:32:35;;;;;;;1.80;1.13;;;34.80;31.70;;;;;;5068387;28;20032;-43
2023/06/03 11:35:04;;;;;;;3.35;1.05;;;34.00;32.50;;;;;;5075415;28;20374;-45
2023/06/03 11:37:52;;;;;;;0.80;0.73;;;34.70;31.10;;;;;;5068146;28;20099;-43
2023/06/03 11:40:20;;;;;;;0.90;0.80;;;34.60;31.70;;;;;;5087400;28;20223;-44
2023/06/03 11:42:52;;;;;;;1.85;0.80;;;34.30;31.90;;;;;;5071904;28;20024;-44
2023/06/03 11:45:17;;;;;;;2.92;0.90;;;34.00;32.30;;;;;;5070073;28;20056;-44
2023/06/03 11:48:15;;;;;;;1.75;1.08;;;33.00;32.30;;;;;;5069994;28;20051;-44
2023/06/03 11:50:57;;;;;;;1.88;1.02;;;33.20;32.90;;;;;;5066759;28;20024;-44
2023/06/03 11:53:41;;;;;;;1.35;1.13;;;33.10;32.60;;;;;;5066772;28;20037;-44
2023/06/03 11:56:11;;;;;;;1.33;1.02;;;33.20;32.40;;;;;;5064656;28;20055;-43
2023/06/03 11:58:37;;;;;;;1.33;0.90;;;32.80;30.90;;;;;;5070285;28;20518;-45
2023/06/03 12:01:17;;;;;;;3.03;1.00;;;32.10;32.50;;;;;;5070654;28;20016;-43
2023/06/03 12:04:03;;;;;;;1.60;1.40;;;31.70;31.30;;;;;;5080724;28;20020;-44
2023/06/03 12:06:38;;;;;;;2.78;0.95;;;30.60;31.90;;;;;;5079858;28;20103;-46
2023/06/03 12:09:03;;;;;;;0.88;0.88;;;30.00;33.40;;;;;;5075478;28;20077;-43
2023/06/03 12:11:30;;;;;;;1.48;0.95;;;29.60;34.40;;;;;;5090183;28;20020;-42
2023/06/03 12:13:56;;;;;;;4.05;1.10;;;29.60;34.20;;;;;;5072531;28;20030;-44
2023/06/03 12:16:36;;;;;;;1.73;1.20;;;29.00;34.50;;;;;;5090716;28;20409;-45
2023/06/03 12:19:04;;;;;;;1.10;1.00;;;28.50;35.50;;;;;;5062296;28;20032;-47
2023/06/03 12:21:35;;;;;;;1.48;1.27;;;28.40;34.10;;;;;;5070091;28;20493;-42
2023/06/03 12:24:06;;;;;;;5.07;1.30;;;28.00;35.00;;;;;;5070166;28;20058;-43
2023/06/03 12:26:37;;;;;;;2.38;1.13;;;27.90;36.50;;;;;;5069863;28;20024;-43
2023/06/03 12:29:11;;;;;;;88.85;73.93;;;27.50;35.80;;;;;;5081955;28;20095;-44
2023/06/03 12:31:36;;;;;;;5.45;3.75;;;27.20;35.30;;;;;;5090153;28;20077;-44
2023/06/03 12:34:03;;;;;;;2.35;1.70;;;26.60;36.50;;;;;;5085182;28;20377;-46
2023/06/03 12:36:48;;;;;;;1.65;1.50;;;26.90;36.10;;;;;;5069679;28;20027;-44
2023/06/03 12:39:14;;;;;;;2.45;1.65;;;26.80;36.70;;;;;;5064289;28;20666;-46
2023/06/03 12:42:00;;;;;;;3.20;1.75;;;26.50;36.70;;;;;;5057608;28;20040;-43
2023/06/03 12:44:26;;;;;;;1.20;1.10;;;26.30;37.90;;;;;;5068861;28;20416;-44
2023/06/03 12:47:03;;;;;;;1.98;0.98;;;26.20;36.50;;;;;;5086409;28;20005;-44
2023/06/03 12:49:29;;;;;;;3.08;0.82;;;26.00;36.90;;;;;;5068023;28;20111;-44
2023/06/03 12:52:09;;;;;;;1.65;1.10;;;26.00;36.40;;;;;;5068738;28;20021;-44
2023/06/03 12:54:34;;;;;;;1.83;1.30;;;26.00;36.60;;;;;;5067978;28;20028;-45
2023/06/03 12:57:01;;;;;;;2.10;1.30;;;26.10;37.20;;;;;;5069169;28;20043;-43
2023/06/03 12:59:26;;;;;;;2.17;1.00;;;25.50;37.10;;;;;;5067616;28;20032;-46
2023/06/03 13:01:52;;;;;;;4.35;1.20;;;25.30;38.20;;;;;;5067852;28;20477;-43
2023/06/03 13:04:18;;;;;;;1.73;1.00;;;25.30;39.10;;;;;;5067918;28;20052;-44
2023/06/03 13:06:44;;;;;;;1.40;1.00;;;25.30;38.50;;;;;;5068423;28;20042;-45
2023/06/03 13:09:10;;;;;;;2.08;1.00;;;25.10;38.60;;;;;;5076886;28;20015;-43
2023/06/03 13:11:35;;;;;;;1.88;1.23;;;24.90;38.20;;;;;;5078295;28;20020;-42
2023/06/03 13:14:01;;;;;;;1.88;1.10;;;24.90;40.60;;;;;;5073351;28;20027;-42
2023/06/03 13:16:26;;;;;;;5.10;1.55;;;24.50;38.10;;;;;;5088910;28;20086;-43
2023/06/03 13:18:52;;;;;;;3.72;1.08;;;24.70;39.50;;;;;;5068123;28;20336;-41
2023/06/03 13:21:17;;;;;;;1.05;0.98;;;24.50;38.70;;;;;;5068466;28;20145;-44
2023/06/03 13:23:43;;;;;;;2.30;1.40;;;24.50;38.70;;;;;;5068173;28;20575;-42
2023/06/03 13:26:08;;;;;;;5.47;1.80;;;25.00;38.30;;;;;;5070072;28;20028;-42
2023/06/03 13:28:33;;;;;;;3.45;1.60;;;24.90;38.20;;;;;;5070158;28;20166;-44
2023/06/03 13:30:59;;;;;;;2.38;1.25;;;24.70;37.70;;;;;;5070584;28;20458;-41
2023/06/03 13:33:25;;;;;;;6.00;1.60;;;24.80;37.90;;;;;;5069796;28;20036;-46
2023/06/03 13:35:50;;;;;;;2.05;1.33;;;24.50;37.60;;;;;;5068374;28;20020;-46
2023/06/03 13:38:16;;;;;;;2.20;1.70;;;24.50;38.80;;;;;;5067745;28;20533;-45
2023/06/03 13:40:41;;;;;;;1.92;1.60;;;24.20;38.30;;;;;;5067223;28;20017;-42
2023/06/03 13:43:07;;;;;;;4.13;1.50;;;24.00;39.40;;;;;;5071041;28;20024;-42
2023/06/03 13:45:32;;;;;;;1.48;1.23;;;24.10;38.30;;;;;;5074118;28;20072;-44
2023/06/03 13:47:58;;;;;;;2.90;2.25;;;24.20;38.00;;;;;;5081506;28;20512;-44
2023/06/03 13:50:24;;;;;;;5.32;2.60;;;24.60;39.70;;;;;;5087921;28;20081;-43
2023/06/03 13:52:49;;;;;;;2.30;1.42;;;25.10;39.00;;;;;;5083471;28;20394;-43
2023/06/03 13:55:15;;;;;;;1.23;0.90;;;25.30;38.60;;;;;;5088200;28;20068;-42
2023/06/03 13:57:41;;;;;;;2.53;0.90;;;25.60;38.90;;;;;;5088131;28;20493;-43
2023/06/03 14:00:07;;;;;;;1.13;1.02;;;25.60;39.10;;;;;;5087865;28;20024;-43
2023/06/03 14:02:32;;;;;;;1.63;1.33;;;25.80;38.10;;;;;;5070172;28;20028;-43